Sharp Lady — 2EKQ4 — position and weather

sailwx.info

Track history (hours):
 
Tides and Currents Weather Stations Pressure Air Temp Water Temp Dewpoint Dewpoint Depression Visibility Wind Speed Wind Dir Waves Ship Positions

Sharp Lady

Last reported at 2014-Oct-27 11:05 UTC. Time now 2014-Nov-27 22:00 UTC.
Position N 51°55' E 004°12'.
Warning: this ship's position is 31 days out of date.

Length 250 m; draft 14.6 m.

Type: Ship. MMSI: 235090261.

Date/timePositionNaut miles runAvg speedWind from/ knotsBaromVisibWave heightAir tempDewpointWater temp
2014-Oct-27 11:05N 51°55' E 004°12'0 0.0
2014-Oct-27 10:33N 51°55' E 004°12'0 0.0
2014-Oct-27 09:32N 51°55' E 004°12'0 0.0
2014-Oct-27 08:33N 51°55' E 004°12'0 0.0
2014-Oct-27 07:33N 51°55' E 004°12'0 0.0
2014-Oct-27 06:33N 51°55' E 004°12'0 0.0
2014-Oct-27 05:33N 51°55' E 004°12'0 0.0
2014-Oct-27 04:33N 51°55' E 004°12'0 0.0
2014-Oct-27 03:33N 51°55' E 004°12'0 0.0
2014-Oct-27 02:33N 51°55' E 004°12'0 0.0
2014-Oct-27 01:33N 51°55' E 004°12'0 0.2
2014-Oct-27 00:34N 51°55' E 004°12'5 5.4
2014-Oct-26 23:33N 51°59' E 004°05'1010.3
2014-Oct-26 22:33N 52°01' E 003°49'8 7.8
2014-Oct-26 21:33N 51°58' E 003°37'1211.2
2014-Oct-26 20:31N 51°56' E 003°19'1211.8
2014-Oct-26 19:32N 51°54' E 003°00'1211.9
2014-Oct-26 18:31N 51°53' E 002°41'10 9.8
2014-Oct-26 17:32N 52°02' E 002°36'10 9.9
2014-Oct-26 16:33N 52°12' E 002°38'10 9.8
2014-Oct-26 15:33N 52°21' E 002°44'10 9.9
2014-Oct-26 14:33N 52°30' E 002°52'1110.5
2014-Oct-26 13:33N 52°39' E 003°00'1711.7
2014-Oct-26 12:07N 52°53' E 003°14'20011.1
2014-Oct-25 18:06N 55°44' E 006°14'611.4
2014-Oct-25 17:33N 55°50' E 006°19'1111.4
2014-Oct-25 16:33N 55°59' E 006°29'10311.0
2014-Oct-25 07:12N 57°22' E 008°22'2011.6
2014-Oct-25 05:31N 57°32' E 008°53'4511.2
2014-Oct-25 01:28N 57°48' E 010°13'1010.9
2014-Oct-25 00:33N 57°48' E 010°31'9 9.1
2014-Oct-24 23:33N 57°47' E 010°48'1312.5
2014-Oct-24 22:33N 57°38' E 011°05'1313.3
2014-Oct-24 21:33N 57°29' E 011°24'1313.4
2014-Oct-24 20:33N 57°17' E 011°34'1313.3
2014-Oct-24 19:33N 57°04' E 011°42'1312.8
2014-Oct-24 18:33N 56°52' E 011°49'1211.7
2014-Oct-24 17:32N 56°40' E 011°49'12511.3
2014-Oct-24 06:31N 54°41' E 010°47'1411.7
2014-Oct-24 05:20N 54°36' E 011°10'1012.3
2014-Oct-24 04:33N 54°32' E 011°25'1212.0
2014-Oct-24 03:31N 54°27' E 011°44'1212.2
2014-Oct-24 02:33N 54°26' E 012°05'1010.1
2014-Oct-24 01:33N 54°35' E 012°15'9 9.3
2014-Oct-24 00:32N 54°41' E 012°28'5012.1
2014-Oct-23 20:22N 55°00' E 013°48'1012.3
2014-Oct-23 19:33N 55°04' E 014°04'1212.4
2014-Oct-23 18:33N 55°14' E 014°18'1212.4
2014-Oct-23 17:33N 55°24' E 014°30'1212.3
2014-Oct-23 16:33N 55°31' E 014°48'1312.4
2014-Oct-23 15:33N 55°37' E 015°08'1212.5
2014-Oct-23 14:33N 55°40' E 015°29'33511.5
2014-Oct-22 09:19N 59°34' E 022°58'1012.1
2014-Oct-22 08:32N 59°37' E 023°16'1212.2
2014-Oct-22 07:33N 59°40' E 023°39'1212.4
2014-Oct-22 06:33N 59°44' E 024°03'1212.6
2014-Oct-22 05:33N 59°47' E 024°26'5212.4
2014-Oct-22 01:20N 59°58' E 026°08'1012.4
2014-Oct-22 00:33N 60°01' E 026°27'1212.0
2014-Oct-21 23:33N 60°00' E 026°51'1211.3
2014-Oct-21 22:32N 60°03' E 027°14'  
2014-Oct-18 14:22N 60°04' E 027°22'1012.9
2014-Oct-18 13:33N 59°58' E 027°04'1312.8
2014-Oct-18 12:34N 59°59' E 026°39'1312.8
2014-Oct-18 11:32N 59°56' E 026°14'1212.8
2014-Oct-18 10:33N 59°53' E 025°49'1612.6
2014-Oct-18 09:15N 59°49' E 025°18'912.7
2014-Oct-18 08:31N 59°47' E 024°59'1212.6
2014-Oct-18 07:33N 59°44' E 024°36'1312.4
2014-Oct-18 06:30N 59°41' E 024°11'1312.5
2014-Oct-18 05:28N 59°37' E 023°46'1212.5
2014-Oct-18 04:30N 59°33' E 023°24'1212.7
2014-Oct-18 03:31N 59°29' E 023°01'  
Track history (hours):
 
Tides and Currents Weather Stations Pressure Air Temp Water Temp Dewpoint Dewpoint Depression Visibility Wind Speed Wind Dir Waves Ship Positions

Sharp Lady

Last reported at 2014-Oct-27 11:05 UTC. Time now 2014-Nov-27 22:00 UTC.
Position N 51°55' E 004°12'.
Warning: this ship's position is 31 days out of date.

Length 250 m; draft 14.6 m.

Type: Ship. MMSI: 235090261.

Date/timePositionNaut miles runAvg speedWind from/ knotsBaromVisibWave heightAir tempDewpointWater temp
2014-Oct-27 11:05N 51°55' E 004°12'0 0.0
2014-Oct-27 10:33N 51°55' E 004°12'0 0.0
2014-Oct-27 09:32N 51°55' E 004°12'0 0.0
2014-Oct-27 08:33N 51°55' E 004°12'0 0.0
2014-Oct-27 07:33N 51°55' E 004°12'0 0.0
2014-Oct-27 06:33N 51°55' E 004°12'0 0.0
2014-Oct-27 05:33N 51°55' E 004°12'0 0.0
2014-Oct-27 04:33N 51°55' E 004°12'0 0.0
2014-Oct-27 03:33N 51°55' E 004°12'0 0.0
2014-Oct-27 02:33N 51°55' E 004°12'0 0.0
2014-Oct-27 01:33N 51°55' E 004°12'0 0.2
2014-Oct-27 00:34N 51°55' E 004°12'5 5.4
2014-Oct-26 23:33N 51°59' E 004°05'1010.3
2014-Oct-26 22:33N 52°01' E 003°49'8 7.8
2014-Oct-26 21:33N 51°58' E 003°37'1211.2
2014-Oct-26 20:31N 51°56' E 003°19'1211.8
2014-Oct-26 19:32N 51°54' E 003°00'1211.9
2014-Oct-26 18:31N 51°53' E 002°41'10 9.8
2014-Oct-26 17:32N 52°02' E 002°36'10 9.9
2014-Oct-26 16:33N 52°12' E 002°38'10 9.8
2014-Oct-26 15:33N 52°21' E 002°44'10 9.9
2014-Oct-26 14:33N 52°30' E 002°52'1110.5
2014-Oct-26 13:33N 52°39' E 003°00'1711.7
2014-Oct-26 12:07N 52°53' E 003°14'20011.1
2014-Oct-25 18:06N 55°44' E 006°14'611.4
2014-Oct-25 17:33N 55°50' E 006°19'1111.4
2014-Oct-25 16:33N 55°59' E 006°29'10311.0
2014-Oct-25 07:12N 57°22' E 008°22'2011.6
2014-Oct-25 05:31N 57°32' E 008°53'4511.2
2014-Oct-25 01:28N 57°48' E 010°13'1010.9
2014-Oct-25 00:33N 57°48' E 010°31'9 9.1
2014-Oct-24 23:33N 57°47' E 010°48'1312.5
2014-Oct-24 22:33N 57°38' E 011°05'1313.3
2014-Oct-24 21:33N 57°29' E 011°24'1313.4
2014-Oct-24 20:33N 57°17' E 011°34'1313.3
2014-Oct-24 19:33N 57°04' E 011°42'1312.8
2014-Oct-24 18:33N 56°52' E 011°49'1211.7
2014-Oct-24 17:32N 56°40' E 011°49'12511.3
2014-Oct-24 06:31N 54°41' E 010°47'1411.7
2014-Oct-24 05:20N 54°36' E 011°10'1012.3
2014-Oct-24 04:33N 54°32' E 011°25'1212.0
2014-Oct-24 03:31N 54°27' E 011°44'1212.2
2014-Oct-24 02:33N 54°26' E 012°05'1010.1
2014-Oct-24 01:33N 54°35' E 012°15'9 9.3
2014-Oct-24 00:32N 54°41' E 012°28'5012.1
2014-Oct-23 20:22N 55°00' E 013°48'1012.3
2014-Oct-23 19:33N 55°04' E 014°04'1212.4
2014-Oct-23 18:33N 55°14' E 014°18'1212.4
2014-Oct-23 17:33N 55°24' E 014°30'1212.3
2014-Oct-23 16:33N 55°31' E 014°48'1312.4
2014-Oct-23 15:33N 55°37' E 015°08'1212.5
2014-Oct-23 14:33N 55°40' E 015°29'33511.5
2014-Oct-22 09:19N 59°34' E 022°58'1012.1
2014-Oct-22 08:32N 59°37' E 023°16'1212.2
2014-Oct-22 07:33N 59°40' E 023°39'1212.4
2014-Oct-22 06:33N 59°44' E 024°03'1212.6
2014-Oct-22 05:33N 59°47' E 024°26'5212.4
2014-Oct-22 01:20N 59°58' E 026°08'1012.4
2014-Oct-22 00:33N 60°01' E 026°27'1212.0
2014-Oct-21 23:33N 60°00' E 026°51'1211.3
2014-Oct-21 22:32N 60°03' E 027°14'  
2014-Oct-18 14:22N 60°04' E 027°22'1012.9
2014-Oct-18 13:33N 59°58' E 027°04'1312.8
2014-Oct-18 12:34N 59°59' E 026°39'1312.8
2014-Oct-18 11:32N 59°56' E 026°14'1212.8
2014-Oct-18 10:33N 59°53' E 025°49'1612.6
2014-Oct-18 09:15N 59°49' E 025°18'912.7
2014-Oct-18 08:31N 59°47' E 024°59'1212.6
2014-Oct-18 07:33N 59°44' E 024°36'1312.4
2014-Oct-18 06:30N 59°41' E 024°11'1312.5
2014-Oct-18 05:28N 59°37' E 023°46'1212.5
2014-Oct-18 04:30N 59°33' E 023°24'1212.7
2014-Oct-18 03:31N 59°29' E 023°01'  

Dump ship's entire track history